createdAt,value
2022-12-15T00:00:04.939Z,-1.10
2022-12-15T00:02:50.542Z,-1.10
2022-12-15T00:05:36.770Z,-1.10
2022-12-15T00:08:26.544Z,-1.10
2022-12-15T00:11:13.402Z,-1.10
2022-12-15T00:13:59.639Z,-1.10
2022-12-15T00:16:46.433Z,-1.10
2022-12-15T00:19:31.960Z,-0.90
2022-12-15T00:22:17.293Z,-1.10
2022-12-15T00:25:03.066Z,-1.10
2022-12-15T00:27:48.487Z,-1.20
2022-12-15T00:30:34.311Z,-1.30
2022-12-15T00:33:26.403Z,-1.20
2022-12-15T00:36:12.312Z,-1.20
2022-12-15T00:38:46.160Z,-1.20
2022-12-15T00:41:16.254Z,-1.30
2022-12-15T00:43:44.767Z,-1.30
2022-12-15T00:46:30.440Z,-1.20
2022-12-15T00:49:00.093Z,-1.30
2022-12-15T00:51:46.017Z,-1.40
2022-12-15T00:54:31.967Z,-1.40
2022-12-15T00:57:17.391Z,-1.50
2022-12-15T01:00:03.004Z,-1.50
2022-12-15T01:02:48.912Z,-1.60
2022-12-15T01:05:36.362Z,-1.50
2022-12-15T01:08:21.662Z,-1.50
2022-12-15T01:11:07.304Z,-1.50
2022-12-15T01:13:53.285Z,-1.50
2022-12-15T01:16:38.771Z,-1.60
2022-12-15T01:19:26.795Z,-1.50
2022-12-15T01:21:56.324Z,-1.60
2022-12-15T01:24:24.523Z,-1.70
2022-12-15T01:26:52.645Z,-1.60
2022-12-15T01:29:20.847Z,-1.70
2022-12-15T01:31:50.027Z,-1.70
2022-12-15T01:34:20.090Z,-1.80
2022-12-15T01:36:48.313Z,-1.70
2022-12-15T01:39:17.863Z,-1.70
2022-12-15T01:41:44.971Z,-1.70
2022-12-15T01:44:21.520Z,-1.70
2022-12-15T01:46:52.392Z,-1.80
2022-12-15T01:49:26.728Z,-1.90
2022-12-15T01:51:59.480Z,-1.90
2022-12-15T01:54:32.172Z,-1.90
2022-12-15T01:57:06.070Z,-1.80
2022-12-15T01:59:37.198Z,-1.90
2022-12-15T02:02:05.991Z,-1.90
2022-12-15T02:04:35.336Z,-1.90
2022-12-15T02:07:04.589Z,-1.90
2022-12-15T02:09:34.283Z,-2.00
2022-12-15T02:12:09.607Z,-1.90
2022-12-15T02:14:54.571Z,-1.80
2022-12-15T02:17:30.943Z,-1.70
2022-12-15T02:20:33.752Z,-1.80
2022-12-15T02:23:49.524Z,-1.90
2022-12-15T02:27:05.632Z,-1.90
2022-12-15T02:30:09.662Z,-1.90
2022-12-15T02:32:49.350Z,-2.00
2022-12-15T02:35:26.215Z,-2.10
2022-12-15T02:37:54.738Z,-2.00
2022-12-15T02:40:22.919Z,-2.00
2022-12-15T02:42:55.047Z,-2.00
2022-12-15T02:45:29.546Z,-2.00
2022-12-15T02:48:12.019Z,-2.00
2022-12-15T02:51:00.717Z,-1.90
2022-12-15T02:53:42.488Z,-1.90
2022-12-15T02:56:19.558Z,-1.90
2022-12-15T02:58:58.053Z,-1.90
2022-12-15T03:01:31.884Z,-1.80
2022-12-15T03:04:04.941Z,-1.90
2022-12-15T03:06:33.126Z,-1.90
2022-12-15T03:09:01.274Z,-1.80
2022-12-15T03:11:29.938Z,-1.90
2022-12-15T03:13:58.991Z,-1.80
2022-12-15T03:16:27.178Z,-1.50
2022-12-15T03:18:55.410Z,-1.50
2022-12-15T03:21:24.919Z,-1.70
2022-12-15T03:23:53.058Z,-1.80
2022-12-15T03:26:21.686Z,-1.90
2022-12-15T03:28:49.947Z,-1.90
2022-12-15T03:31:18.306Z,-1.90
2022-12-15T03:33:46.834Z,-2.00
2022-12-15T03:36:14.987Z,-2.00
2022-12-15T03:38:44.621Z,-2.00
2022-12-15T03:41:12.750Z,-2.00
2022-12-15T03:43:40.939Z,-2.00
2022-12-15T03:46:09.151Z,-2.00
2022-12-15T03:48:37.584Z,-2.00
2022-12-15T03:51:06.166Z,-2.10
2022-12-15T03:53:34.522Z,-2.10
2022-12-15T03:56:04.306Z,-2.10
2022-12-15T03:58:32.426Z,-2.10
2022-12-15T04:01:00.598Z,-2.00
2022-12-15T04:03:29.255Z,-1.90
2022-12-15T04:05:57.642Z,-2.00
2022-12-15T04:08:26.819Z,-1.90
2022-12-15T04:10:55.075Z,-1.90
2022-12-15T04:13:24.620Z,-1.90
2022-12-15T04:15:52.678Z,-1.90
2022-12-15T04:18:21.196Z,-1.90
2022-12-15T04:20:50.170Z,-1.90
2022-12-15T04:23:18.647Z,-1.90
2022-12-15T04:26:04.425Z,-1.90
2022-12-15T04:28:51.896Z,-1.90
2022-12-15T04:31:40.910Z,-1.90
2022-12-15T04:34:30.332Z,-1.70
2022-12-15T04:37:16.809Z,-1.80
2022-12-15T04:40:05.333Z,-1.80
2022-12-15T04:42:52.387Z,-1.90
2022-12-15T04:45:41.744Z,-1.90
2022-12-15T04:48:27.776Z,-1.90
2022-12-15T04:51:13.689Z,-1.90
2022-12-15T04:54:00.962Z,-1.70
2022-12-15T04:56:47.017Z,-1.70
2022-12-15T04:59:35.750Z,-1.70
2022-12-15T05:02:23.039Z,-1.80
2022-12-15T05:05:08.544Z,-1.60
2022-12-15T05:07:53.871Z,-1.70
2022-12-15T05:10:39.468Z,-1.80
2022-12-15T05:13:25.757Z,-1.80
2022-12-15T05:16:11.598Z,-1.80
2022-12-15T05:18:59.714Z,-1.70
2022-12-15T05:21:45.270Z,-1.90
2022-12-15T05:24:30.943Z,-1.90
2022-12-15T05:27:16.376Z,-2.00
2022-12-15T05:30:01.825Z,-1.80
2022-12-15T05:32:32.361Z,-1.60
2022-12-15T05:35:02.391Z,-1.70
2022-12-15T05:37:30.878Z,-1.90
2022-12-15T05:39:59.131Z,-1.90
2022-12-15T05:42:28.328Z,-1.80
2022-12-15T05:44:56.793Z,-1.90
2022-12-15T05:47:24.935Z,-1.80
2022-12-15T05:49:53.057Z,-1.80
2022-12-15T05:52:22.610Z,-1.90
2022-12-15T05:54:50.753Z,-2.00
2022-12-15T05:57:18.958Z,-1.90
2022-12-15T05:59:47.074Z,-1.90
2022-12-15T06:02:15.452Z,-1.90
2022-12-15T06:04:43.770Z,-1.90
2022-12-15T06:07:11.980Z,-1.90
2022-12-15T06:09:41.400Z,-1.90
2022-12-15T06:12:09.599Z,-2.00
2022-12-15T06:14:37.829Z,-1.80
2022-12-15T06:17:06.134Z,-1.90
2022-12-15T06:19:34.400Z,-1.90
2022-12-15T06:22:02.546Z,-1.50
2022-12-15T06:24:30.603Z,-1.50
2022-12-15T06:27:00.479Z,-1.80
2022-12-15T06:29:28.735Z,-1.90
2022-12-15T06:31:56.874Z,-2.00
2022-12-15T06:34:25.123Z,-2.00
2022-12-15T06:36:53.174Z,-2.10
2022-12-15T06:39:21.572Z,-2.10
2022-12-15T06:41:49.983Z,-2.10
2022-12-15T06:44:19.543Z,-2.00
2022-12-15T06:46:47.743Z,-2.00
2022-12-15T06:49:15.918Z,-1.70
2022-12-15T06:51:45.070Z,-1.60
2022-12-15T06:54:13.549Z,-1.70
2022-12-15T06:56:42.300Z,-1.70
2022-12-15T06:59:12.591Z,-1.40
2022-12-15T07:01:43.145Z,-1.50
2022-12-15T07:04:12.090Z,-1.70
2022-12-15T07:06:42.277Z,-1.40
2022-12-15T07:09:17.110Z,-1.50
2022-12-15T07:11:46.362Z,-1.70
2022-12-15T07:14:14.645Z,-1.90
2022-12-15T07:16:45.539Z,-1.70
2022-12-15T07:19:14.076Z,-1.60
2022-12-15T07:21:42.596Z,-1.70
2022-12-15T07:24:12.236Z,-1.40
2022-12-15T07:26:40.519Z,-1.60
2022-12-15T07:29:08.630Z,-1.80
2022-12-15T07:31:36.794Z,-1.80
2022-12-15T07:34:06.378Z,-1.70
2022-12-15T07:36:34.801Z,-1.60
2022-12-15T07:39:04.063Z,-1.60
2022-12-15T07:41:32.535Z,-1.70
2022-12-15T07:44:02.199Z,-1.90
2022-12-15T07:46:30.443Z,-1.80
2022-12-15T07:48:58.652Z,-1.70
2022-12-15T07:51:28.282Z,-1.40
2022-12-15T07:53:57.084Z,-1.10
2022-12-15T07:56:25.204Z,-1.00
2022-12-15T07:58:53.363Z,-1.40
2022-12-15T08:01:21.658Z,-1.20
2022-12-15T08:03:50.587Z,-1.00
2022-12-15T08:06:18.911Z,-1.10
2022-12-15T08:08:51.051Z,-1.20
2022-12-15T08:11:21.662Z,-1.20
2022-12-15T08:14:10.489Z,-1.00
2022-12-15T08:16:38.954Z,-1.30
2022-12-15T08:19:08.894Z,-1.60
2022-12-15T08:21:37.094Z,-1.50
2022-12-15T08:24:08.121Z,-1.70
2022-12-15T08:26:37.910Z,-1.70
2022-12-15T08:29:40.486Z,-1.70
2022-12-15T08:31:56.259Z,-1.60
2022-12-15T08:34:24.591Z,-1.60
2022-12-15T08:36:52.666Z,-1.50
2022-12-15T08:39:22.882Z,-1.50
2022-12-15T08:41:51.888Z,-1.30
2022-12-15T08:44:20.025Z,-1.20
2022-12-15T08:46:48.154Z,-1.40
2022-12-15T08:49:21.452Z,-1.40
2022-12-15T08:51:50.606Z,-1.40
2022-12-15T08:54:20.229Z,-1.40
2022-12-15T08:56:50.127Z,-1.40
2022-12-15T08:59:19.083Z,-1.50
2022-12-15T09:01:47.515Z,-1.60
2022-12-15T09:04:16.387Z,-1.60
2022-12-15T09:06:48.463Z,-1.50
2022-12-15T09:09:19.864Z,-1.40
2022-12-15T09:11:49.579Z,-1.40
2022-12-15T09:14:19.632Z,-1.50
2022-12-15T09:16:50.712Z,-1.50
2022-12-15T09:19:19.187Z,-1.40
2022-12-15T09:21:48.226Z,-1.10
2022-12-15T09:24:25.826Z,-1.20
2022-12-15T09:26:56.407Z,-1.30
2022-12-15T09:29:24.475Z,-1.40
2022-12-15T09:31:52.611Z,-1.10
2022-12-15T09:34:20.809Z,-1.00
2022-12-15T09:36:49.169Z,-0.80
2022-12-15T09:39:17.427Z,-0.80
2022-12-15T09:41:54.523Z,-0.80
2022-12-15T09:44:26.317Z,-1.00
2022-12-15T09:47:05.826Z,-1.10
2022-12-15T09:49:53.997Z,-1.10
2022-12-15T09:52:26.074Z,-1.10
2022-12-15T09:54:54.862Z,-0.90
2022-12-15T09:57:32.967Z,-0.80
2022-12-15T10:00:16.700Z,-0.90
2022-12-15T10:03:11.389Z,-1.00
2022-12-15T10:08:44.562Z,-0.80
2022-12-15T10:11:22.117Z,-0.90
2022-12-15T10:13:56.132Z,-0.80
2022-12-15T10:16:33.590Z,-1.00
2022-12-15T10:19:09.880Z,-1.00
2022-12-15T10:21:38.193Z,-0.80
2022-12-15T10:24:44.378Z,-0.90
2022-12-15T10:30:51.152Z,-1.00
2022-12-15T10:33:24.157Z,-0.90
2022-12-15T10:35:54.476Z,-0.90
2022-12-15T10:38:31.139Z,-0.90
2022-12-15T10:41:02.175Z,-0.80
2022-12-15T10:43:35.844Z,-0.80
2022-12-15T10:46:14.645Z,-0.70
2022-12-15T10:48:48.741Z,-0.80
2022-12-15T10:51:26.001Z,-0.50
2022-12-15T10:53:55.885Z,-0.20
2022-12-15T10:56:32.787Z,0.00
2022-12-15T10:59:04.017Z,-0.10
2022-12-15T11:01:34.225Z,0.10
2022-12-15T11:04:04.359Z,-0.30
2022-12-15T11:06:36.974Z,-0.30
2022-12-15T11:09:19.061Z,-0.40
2022-12-15T11:12:06.291Z,-0.60
2022-12-15T11:14:44.990Z,-0.80
2022-12-15T11:17:18.570Z,-0.80
2022-12-15T11:20:01.990Z,-0.60
2022-12-15T11:22:38.477Z,-0.60
2022-12-15T11:25:17.600Z,-0.60
2022-12-15T11:27:46.274Z,-0.60
2022-12-15T11:30:16.977Z,-0.70
2022-12-15T11:32:48.927Z,-0.60
2022-12-15T11:35:23.423Z,-0.60
2022-12-15T11:37:57.772Z,-0.70
2022-12-15T11:40:39.687Z,-0.70
2022-12-15T11:43:37.575Z,-0.80
2022-12-15T11:46:21.708Z,-0.80
2022-12-15T11:49:07.582Z,-0.70
2022-12-15T11:51:43.660Z,-0.60
2022-12-15T11:54:19.421Z,-0.60
2022-12-15T11:56:51.874Z,-0.40
2022-12-15T11:59:43.539Z,-0.10
2022-12-15T12:02:33.294Z,-0.20
2022-12-15T12:05:17.116Z,-0.40
2022-12-15T12:07:49.406Z,-0.60
2022-12-15T12:10:32.227Z,-0.60
2022-12-15T12:13:10.574Z,-0.60
2022-12-15T12:15:47.863Z,-0.60
2022-12-15T12:18:22.806Z,-0.60
2022-12-15T12:20:54.495Z,-0.60
2022-12-15T12:23:32.813Z,-0.60
2022-12-15T12:26:07.067Z,-0.60
2022-12-15T12:28:46.693Z,-0.50
2022-12-15T12:31:27.704Z,-0.40
2022-12-15T12:34:03.374Z,-0.50
2022-12-15T12:36:31.916Z,-0.50
2022-12-15T12:39:01.842Z,-0.60
2022-12-15T12:41:41.269Z,-0.60
2022-12-15T12:44:16.589Z,-0.60
2022-12-15T12:46:49.017Z,-0.60
2022-12-15T12:52:22.782Z,-0.60
2022-12-15T12:55:26.261Z,-0.60
2022-12-15T12:57:55.857Z,-0.50
2022-12-15T13:00:27.205Z,-0.50
2022-12-15T13:03:16.387Z,-0.40
2022-12-15T13:05:48.794Z,-0.50
2022-12-15T13:08:44.679Z,-0.60
2022-12-15T13:11:58.320Z,-0.60
2022-12-15T13:14:46.663Z,-0.70
2022-12-15T13:17:28.194Z,-0.70
2022-12-15T13:20:25.760Z,-0.70
2022-12-15T13:22:54.751Z,-0.60
2022-12-15T13:25:48.534Z,-0.50
2022-12-15T13:28:50.498Z,-0.50
2022-12-15T13:31:49.072Z,-0.50
2022-12-15T13:34:25.468Z,-0.60
2022-12-15T13:36:58.981Z,-0.60
2022-12-15T13:39:55.990Z,-0.60
2022-12-15T13:42:53.080Z,-0.60
2022-12-15T13:45:43.093Z,-0.60
2022-12-15T13:48:31.575Z,-0.50
2022-12-15T13:51:06.785Z,-0.30
2022-12-15T13:53:41.700Z,-0.30
2022-12-15T13:56:40.057Z,-0.30
2022-12-15T13:59:17.472Z,-0.30
2022-12-15T14:01:51.324Z,-0.20
2022-12-15T14:04:22.162Z,-0.20
2022-12-15T14:06:53.605Z,-0.10
2022-12-15T14:09:26.920Z,-0.20
2022-12-15T14:11:55.646Z,-0.30
2022-12-15T14:14:26.708Z,-0.40
2022-12-15T14:16:59.717Z,-0.40
2022-12-15T14:19:39.171Z,-0.40
2022-12-15T14:25:20.506Z,-0.30
2022-12-15T14:27:50.670Z,-0.40
2022-12-15T14:30:25.563Z,-0.30
2022-12-15T14:32:59.120Z,-0.40
2022-12-15T14:35:32.667Z,-0.40
2022-12-15T14:38:04.122Z,-0.40
2022-12-15T14:40:34.755Z,0.50
2022-12-15T14:43:04.025Z,0.00
2022-12-15T14:45:33.792Z,-0.10
2022-12-15T14:48:40.004Z,-0.40
2022-12-15T14:51:01.340Z,-0.40
2022-12-15T14:53:34.774Z,-0.50
2022-12-15T14:56:15.732Z,-0.50
2022-12-15T14:58:48.079Z,-0.30
2022-12-15T15:01:24.967Z,-0.40
2022-12-15T15:03:07.286Z,-0.60
2022-12-15T15:04:01.817Z,-0.40
2022-12-15T15:06:37.568Z,-0.50
2022-12-15T15:09:20.982Z,-0.50
2022-12-15T15:11:51.941Z,-0.50
2022-12-15T15:14:25.244Z,-0.40
2022-12-15T15:17:07.394Z,-0.50
2022-12-15T15:19:39.836Z,-0.50
2022-12-15T15:22:28.342Z,-0.10
2022-12-15T15:24:56.590Z,-0.30
2022-12-15T15:27:33.834Z,-0.40
2022-12-15T15:30:17.984Z,-0.30
2022-12-15T15:32:57.261Z,-0.10
2022-12-15T15:35:27.575Z,-0.30
2022-12-15T15:38:03.760Z,-0.30
2022-12-15T15:40:31.945Z,-0.30
2022-12-15T15:43:01.189Z,-0.40
2022-12-15T15:45:29.358Z,-0.40
2022-12-15T15:47:57.457Z,0.00
2022-12-15T15:50:29.995Z,-0.30
2022-12-15T15:53:00.087Z,-0.50
2022-12-15T15:55:37.840Z,-0.60
2022-12-15T15:58:12.281Z,-0.60
2022-12-15T16:00:41.199Z,-0.70
2022-12-15T16:03:09.829Z,-0.70
2022-12-15T16:05:38.307Z,-0.70
2022-12-15T16:08:10.372Z,-0.70
2022-12-15T16:10:38.513Z,-0.70
2022-12-15T16:13:06.675Z,-0.70
2022-12-15T16:15:35.097Z,-0.60
2022-12-15T16:18:03.294Z,-0.50
2022-12-15T16:20:31.883Z,-0.50
2022-12-15T16:23:02.950Z,-0.50
2022-12-15T16:25:43.794Z,-0.60
2022-12-15T16:28:17.477Z,-0.50
2022-12-15T16:30:46.228Z,-0.50
2022-12-15T16:33:14.594Z,-0.40
2022-12-15T16:35:43.999Z,-0.30
2022-12-15T16:38:17.920Z,-0.40
2022-12-15T16:40:47.639Z,-0.50
2022-12-15T16:43:18.639Z,-0.60
2022-12-15T16:45:49.203Z,-0.70
2022-12-15T16:48:18.053Z,-0.70
2022-12-15T16:50:50.727Z,-0.90
2022-12-15T16:53:23.156Z,-0.80
2022-12-15T16:55:55.211Z,-0.80
2022-12-15T16:58:25.118Z,-0.80
2022-12-15T17:00:53.763Z,-0.80
2022-12-15T17:03:25.736Z,-0.90
2022-12-15T17:05:56.486Z,-1.00
2022-12-15T17:08:28.913Z,-1.00
2022-12-15T17:10:58.707Z,-1.10
2022-12-15T17:13:37.670Z,-1.10
2022-12-15T17:16:14.281Z,-1.10
2022-12-15T17:18:44.664Z,-1.10
2022-12-15T17:21:16.906Z,-1.10
2022-12-15T17:23:46.713Z,-1.10
2022-12-15T17:26:28.740Z,-1.10
2022-12-15T17:29:00.004Z,-1.20
2022-12-15T17:31:34.690Z,-1.10
2022-12-15T17:34:09.237Z,-1.20
2022-12-15T17:36:37.839Z,-1.20
2022-12-15T17:39:11.438Z,-1.20
2022-12-15T17:44:34.799Z,-1.30
2022-12-15T17:47:03.746Z,-1.40
2022-12-15T17:49:35.945Z,-1.50
2022-12-15T17:52:09.138Z,-1.40
2022-12-15T17:54:37.418Z,-1.40
2022-12-15T17:57:07.037Z,-1.40
2022-12-15T17:59:35.119Z,-1.50
2022-12-15T18:02:03.548Z,-1.60
2022-12-15T18:04:31.969Z,-1.60
2022-12-15T18:07:02.272Z,-1.60
2022-12-15T18:09:31.506Z,-1.50
2022-12-15T18:11:59.638Z,-1.60
2022-12-15T18:14:29.847Z,-1.60
2022-12-15T18:17:08.273Z,-1.70
2022-12-15T18:19:36.372Z,-1.70
2022-12-15T18:22:04.577Z,-1.70
2022-12-15T18:24:33.346Z,-1.70
2022-12-15T18:27:01.413Z,-1.80
2022-12-15T18:29:31.066Z,-1.70
2022-12-15T18:31:59.388Z,-1.80
2022-12-15T18:34:27.706Z,-1.90
2022-12-15T18:36:56.043Z,-1.80
2022-12-15T18:39:25.017Z,-1.80
2022-12-15T18:41:54.894Z,-1.80
2022-12-15T18:44:25.291Z,-1.80
2022-12-15T18:46:55.638Z,-1.80
2022-12-15T18:49:24.303Z,-1.80
2022-12-15T18:51:52.806Z,-1.80
2022-12-15T18:54:23.333Z,-1.80
2022-12-15T18:56:52.334Z,-1.90
2022-12-15T18:59:22.988Z,-1.90
2022-12-15T19:01:51.234Z,-1.90
2022-12-15T19:04:21.032Z,-1.80
2022-12-15T19:06:49.180Z,-1.80
2022-12-15T19:09:20.469Z,-1.70
2022-12-15T19:12:07.205Z,-1.50
2022-12-15T19:14:41.518Z,-1.70
2022-12-15T19:17:29.124Z,-1.70
2022-12-15T19:20:16.283Z,-1.70
2022-12-15T19:22:45.013Z,-1.70
2022-12-15T19:25:15.187Z,-1.70
2022-12-15T19:27:43.458Z,-1.80
2022-12-15T19:30:16.766Z,-1.80
2022-12-15T19:32:45.101Z,-1.90
2022-12-15T19:35:14.712Z,-1.90
2022-12-15T19:37:46.569Z,-1.90
2022-12-15T19:40:20.897Z,-1.90
2022-12-15T19:42:50.088Z,-1.90
2022-12-15T19:45:20.819Z,-1.80
2022-12-15T19:47:49.273Z,-1.80
2022-12-15T19:50:21.289Z,-1.80
2022-12-15T19:52:53.092Z,-1.90
2022-12-15T19:55:26.422Z,-2.00
2022-12-15T19:57:54.559Z,-2.00
2022-12-15T20:00:25.078Z,-1.90
2022-12-15T20:02:55.932Z,-1.70
2022-12-15T20:05:26.521Z,-1.50
2022-12-15T20:07:55.689Z,-1.40
2022-12-15T20:10:31.855Z,-1.20
2022-12-15T20:13:01.454Z,-1.20
2022-12-15T20:15:29.729Z,-1.30
2022-12-15T20:17:58.152Z,-1.30
2022-12-15T20:20:29.912Z,-1.20
2022-12-15T20:23:02.571Z,-0.80
2022-12-15T20:25:34.390Z,-0.70
2022-12-15T20:28:04.379Z,-1.00
2022-12-15T20:30:35.376Z,-0.90
2022-12-15T20:33:05.150Z,-0.90
2022-12-15T20:35:37.478Z,-1.10
2022-12-15T20:38:28.254Z,-0.80
2022-12-15T20:40:57.298Z,-0.90
2022-12-15T20:43:26.864Z,-1.10
2022-12-15T20:46:02.452Z,-1.30
2022-12-15T20:48:31.170Z,-1.10
2022-12-15T20:51:04.378Z,-1.40
2022-12-15T20:53:35.963Z,-1.40
2022-12-15T20:56:04.265Z,-1.50
2022-12-15T20:58:33.356Z,-1.40
2022-12-15T21:01:02.141Z,-1.20
2022-12-15T21:03:34.698Z,-1.20
2022-12-15T21:06:04.581Z,-1.20
2022-12-15T21:08:33.477Z,-1.10
2022-12-15T21:11:05.754Z,-0.80
2022-12-15T21:13:35.842Z,-1.00
2022-12-15T21:16:04.257Z,-1.20
2022-12-15T21:21:26.782Z,-0.50
2022-12-15T21:23:55.462Z,-0.30
2022-12-15T21:26:25.360Z,-0.20
2022-12-15T21:28:57.283Z,-0.20
2022-12-15T21:31:25.612Z,-0.10
2022-12-15T21:33:54.956Z,-0.30
2022-12-15T21:36:24.423Z,-0.40
2022-12-15T21:38:53.640Z,-0.40
2022-12-15T21:41:24.677Z,-0.40
2022-12-15T21:43:53.210Z,-0.80
2022-12-15T21:46:28.523Z,-0.90
2022-12-15T21:49:14.713Z,-1.00
2022-12-15T21:51:46.987Z,-1.20
2022-12-15T21:54:19.230Z,-0.90
2022-12-15T21:56:48.492Z,-1.00
2022-12-15T21:59:18.869Z,-1.30
2022-12-15T22:01:47.642Z,-1.20
2022-12-15T22:04:19.473Z,-1.10
2022-12-15T22:06:50.485Z,-0.80
2022-12-15T22:09:21.781Z,-1.00
2022-12-15T22:11:52.862Z,-0.80
2022-12-15T22:14:26.391Z,-0.50
2022-12-15T22:16:55.267Z,-0.50
2022-12-15T22:19:24.056Z,-0.50
2022-12-15T22:21:53.725Z,-0.40
2022-12-15T22:24:21.792Z,-0.20
2022-12-15T22:26:50.468Z,-0.40
2022-12-15T22:29:20.648Z,-0.60
2022-12-15T22:31:49.601Z,-0.70
2022-12-15T22:34:20.492Z,-1.00
2022-12-15T22:36:49.471Z,-1.20
2022-12-15T22:39:20.443Z,-1.30
2022-12-15T22:41:51.523Z,-1.30
2022-12-15T22:44:23.105Z,-1.40
2022-12-15T22:46:52.833Z,-1.50
2022-12-15T22:49:24.670Z,-1.40
2022-12-15T22:51:52.834Z,-1.60
2022-12-15T22:54:26.293Z,-1.50
2022-12-15T22:56:58.626Z,-1.40
2022-12-15T22:59:30.552Z,-1.50
2022-12-15T23:01:58.831Z,-1.50
2022-12-15T23:04:27.330Z,-1.50
2022-12-15T23:06:55.532Z,-1.60
2022-12-15T23:09:25.223Z,-1.50
2022-12-15T23:11:52.321Z,-1.50
2022-12-15T23:14:41.371Z,-1.50
2022-12-15T23:17:08.782Z,-1.40
2022-12-15T23:19:37.077Z,-1.40
2022-12-15T23:22:05.117Z,-1.30
2022-12-15T23:24:34.960Z,-1.40
2022-12-15T23:27:03.154Z,-1.50
2022-12-15T23:29:31.314Z,-1.60
2022-12-15T23:31:59.439Z,-1.70
2022-12-15T23:34:27.513Z,-1.60
2022-12-15T23:36:55.702Z,-1.60
2022-12-15T23:39:23.892Z,-1.60
2022-12-15T23:41:53.401Z,-1.60
2022-12-15T23:44:21.802Z,-1.50
2022-12-15T23:46:50.033Z,-1.20
2022-12-15T23:49:18.296Z,-1.10
2022-12-15T23:51:46.447Z,-1.00
2022-12-15T23:54:15.078Z,-0.90
2022-12-15T23:56:43.815Z,-0.60
2022-12-15T23:59:14.506Z,-0.40
